Time;durP1;ratioP1;P1;durP2;ratioP2;P2;SDS_P1;SDS_P2;PMS_P1;PMS_P2;Temp;Humidity;BMP_temperature;BMP_pressure;BME280_temperature;BME280_humidity;BME280_pressure;Samples;Min_cycle;Max_cycle;Signal;HPM_P1;HPM_P2
2021/09/06 00:01:35;;;;;;;16.83;8.45;;;;;;;;;;5051757;28;20020;-86
2021/09/06 00:04:00;;;;;;;18.02;8.18;;;;;;;;;;5051916;28;20020;-85
2021/09/06 00:06:25;;;;;;;16.58;8.38;;;;;;;;;;5053267;28;20013;-86
2021/09/06 00:08:50;;;;;;;14.75;8.25;;;;;;;;;;5050179;28;20035;-86
2021/09/06 00:11:16;;;;;;;18.05;8.40;;;;;;;;;;5050358;28;20017;-86
2021/09/06 00:13:41;;;;;;;18.05;8.43;;;;;;;;;;5050137;28;20021;-86
2021/09/06 00:16:07;;;;;;;16.27;8.27;;;;;;;;;;5051503;28;20112;-86
2021/09/06 00:18:32;;;;;;;17.50;8.45;;;;;;;;;;5050516;28;20036;-86
2021/09/06 00:27:03;;;;;;;;;;;;;;;;;;5048889;28;20016;-86
2021/09/06 00:29:28;;;;;;;16.60;8.32;;;;;;;;;;5049817;28;19908;-86
2021/09/06 00:31:53;;;;;;;16.60;8.60;;;;;;;;;;5051532;28;20032;-86
2021/09/06 00:34:18;;;;;;;16.75;8.55;;;;;;;;;;5051526;28;20116;-86
2021/09/06 00:36:44;;;;;;;13.93;7.93;;;;;;;;;;5052869;28;20025;-86
2021/09/06 00:39:09;;;;;;;14.80;7.75;;;;;;;;;;5051653;28;20486;-85
2021/09/06 00:41:34;;;;;;;15.98;7.88;;;;;;;;;;5052387;28;20019;-86
2021/09/06 00:44:01;;;;;;;14.65;8.13;;;;;;;;;;5051432;28;20024;-86
2021/09/06 00:46:27;;;;;;;13.55;7.75;;;;;;;;;;5049701;28;20025;-85
2021/09/06 00:48:52;;;;;;;16.02;8.25;;;;;;;;;;5050983;28;20388;-86
2021/09/06 00:51:17;;;;;;;15.15;7.93;;;;;;;;;;5051434;28;20451;-86
2021/09/06 00:53:43;;;;;;;16.75;8.20;;;;;;;;;;5051450;28;20021;-86
2021/09/06 00:56:08;;;;;;;16.65;8.05;;;;;;;;;;5051488;28;20419;-86
2021/09/06 00:58:34;;;;;;;15.30;7.97;;;;;;;;;;5050629;28;20029;-86
2021/09/06 01:00:59;;;;;;;18.13;8.32;;;;;;;;;;5051224;28;20163;-86
2021/09/06 01:03:24;;;;;;;15.82;7.30;;;;;;;;;;5052318;28;20009;-86
2021/09/06 01:05:50;;;;;;;19.77;7.55;;;;;;;;;;5051346;28;20020;-86
2021/09/06 01:08:15;;;;;;;15.82;8.57;;;;;;;;;;5052610;28;20082;-86
2021/09/06 01:10:40;;;;;;;17.92;7.45;;;;;;;;;;5051076;28;20028;-86
2021/09/06 01:13:05;;;;;;;14.60;7.72;;;;;;;;;;5053129;28;20025;-86
2021/09/06 01:15:31;;;;;;;17.60;8.45;;;;;;;;;;5055210;28;20024;-86
2021/09/06 01:17:56;;;;;;;15.80;7.93;;;;;;;;;;5055320;28;20070;-86
2021/09/06 01:20:21;;;;;;;16.10;7.97;;;;;;;;;;5055005;28;20021;-86
2021/09/06 01:22:46;;;;;;;17.25;8.45;;;;;;;;;;5056290;28;20045;-86
2021/09/06 01:25:16;;;;;;;14.25;7.72;;;;;;;;;;5055139;28;20066;-86
2021/09/06 01:27:41;;;;;;;17.77;7.90;;;;;;;;;;5055234;28;20027;-86
2021/09/06 01:30:07;;;;;;;15.27;7.82;;;;;;;;;;5055194;28;20047;-85
2021/09/06 01:32:32;;;;;;;15.70;7.70;;;;;;;;;;5055756;28;20020;-85
2021/09/06 01:34:57;;;;;;;19.08;8.85;;;;;;;;;;5054664;28;20082;-85
2021/09/06 01:37:23;;;;;;;13.05;6.65;;;;;;;;;;5054784;28;20070;-85
2021/09/06 01:39:48;;;;;;;16.80;7.95;;;;;;;;;;5054748;28;20039;-85
2021/09/06 01:42:13;;;;;;;16.95;8.05;;;;;;;;;;5054948;28;20032;-86
2021/09/06 01:44:38;;;;;;;16.20;8.55;;;;;;;;;;5054551;28;20029;-85
2021/09/06 01:47:04;;;;;;;17.05;8.02;;;;;;;;;;5056028;28;20017;-86
2021/09/06 01:49:29;;;;;;;16.65;7.82;;;;;;;;;;5054595;28;20036;-85
2021/09/06 01:51:54;;;;;;;16.35;8.15;;;;;;;;;;5054575;28;20021;-85
2021/09/06 01:54:19;;;;;;;16.10;8.68;;;;;;;;;;5054570;28;20071;-85
2021/09/06 01:56:44;;;;;;;18.10;8.70;;;;;;;;;;5055169;28;20013;-85
2021/09/06 01:59:10;;;;;;;16.88;8.57;;;;;;;;;;5054333;28;20055;-86
2021/09/06 02:01:35;;;;;;;15.95;8.32;;;;;;;;;;5054026;28;20017;-86
2021/09/06 02:04:00;;;;;;;14.38;7.90;;;;;;;;;;5054311;28;20465;-85
2021/09/06 02:06:25;;;;;;;18.05;8.88;;;;;;;;;;5055763;28;20027;-85
2021/09/06 02:08:50;;;;;;;17.02;7.43;;;;;;;;;;5054338;28;20031;-86
2021/09/06 02:11:15;;;;;;;17.25;7.70;;;;;;;;;;5054367;28;20025;-86
2021/09/06 02:13:41;;;;;;;16.83;8.10;;;;;;;;;;5054205;28;20027;-86
2021/09/06 02:16:06;;;;;;;14.65;7.10;;;;;;;;;;5055312;28;20025;-86
2021/09/06 02:18:31;;;;;;;16.95;7.07;;;;;;;;;;5055036;28;20029;-85
2021/09/06 02:20:56;;;;;;;16.40;6.90;;;;;;;;;;5055444;28;20019;-86
2021/09/06 02:23:22;;;;;;;14.90;7.43;;;;;;;;;;5053266;28;20024;-85
2021/09/06 02:25:47;;;;;;;15.32;7.28;;;;;;;;;;5054134;28;20376;-85
2021/09/06 02:28:12;;;;;;;16.65;7.65;;;;;;;;;;5054094;28;20032;-86
2021/09/06 02:30:37;;;;;;;15.93;7.90;;;;;;;;;;5053891;28;20024;-86
2021/09/06 02:33:03;;;;;;;14.43;7.70;;;;;;;;;;5055151;28;20448;-85
2021/09/06 02:35:28;;;;;;;17.77;7.00;;;;;;;;;;5054784;28;20049;-86
2021/09/06 02:37:53;;;;;;;14.02;6.72;;;;;;;;;;5053711;28;20074;-86
2021/09/06 02:40:18;;;;;;;12.50;6.80;;;;;;;;;;5054924;28;20036;-85
2021/09/06 02:42:44;;;;;;;12.88;7.28;;;;;;;;;;5053882;28;20024;-85
2021/09/06 02:45:10;;;;;;;15.38;7.45;;;;;;;;;;5054920;28;20021;-85
2021/09/06 02:47:35;;;;;;;14.48;7.47;;;;;;;;;;5053553;28;20100;-85
2021/09/06 02:50:03;;;;;;;14.02;6.80;;;;;;;;;;5053470;28;20530;-85
2021/09/06 02:52:32;;;;;;;17.42;7.90;;;;;;;;;;5052976;28;20033;-85
2021/09/06 02:54:57;;;;;;;12.75;7.07;;;;;;;;;;5054909;28;20020;-86
2021/09/06 02:57:23;;;;;;;16.58;7.43;;;;;;;;;;5054959;28;20453;-85
2021/09/06 02:59:48;;;;;;;16.60;6.82;;;;;;;;;;5053415;28;20468;-85
2021/09/06 03:02:13;;;;;;;12.68;6.32;;;;;;;;;;5053398;28;20025;-85
2021/09/06 03:04:38;;;;;;;16.35;7.60;;;;;;;;;;5052858;28;20072;-85
2021/09/06 03:07:03;;;;;;;13.13;7.03;;;;;;;;;;5053392;28;20016;-85
2021/09/06 03:09:29;;;;;;;15.77;7.13;;;;;;;;;;5053107;28;20066;-85
2021/09/06 03:11:54;;;;;;;16.02;6.60;;;;;;;;;;5053115;28;20422;-86
2021/09/06 03:14:19;;;;;;;18.38;6.93;;;;;;;;;;5053217;28;20472;-85
2021/09/06 03:16:44;;;;;;;13.00;6.45;;;;;;;;;;5054089;28;20017;-84
2021/09/06 03:19:10;;;;;;;16.80;7.50;;;;;;;;;;5053010;28;20016;-85
2021/09/06 03:21:35;;;;;;;15.38;7.20;;;;;;;;;;5054466;28;20488;-85
2021/09/06 03:24:01;;;;;;;14.55;7.75;;;;;;;;;;5052849;28;20024;-85
2021/09/06 03:26:26;;;;;;;18.40;8.00;;;;;;;;;;5053010;28;20025;-86
2021/09/06 03:28:51;;;;;;;13.77;7.75;;;;;;;;;;5052967;28;20029;-85
2021/09/06 03:31:16;;;;;;;16.48;8.02;;;;;;;;;;5053818;28;20124;-86
2021/09/06 03:33:42;;;;;;;18.75;8.02;;;;;;;;;;5053786;28;20025;-85
2021/09/06 03:36:07;;;;;;;18.30;7.32;;;;;;;;;;5051738;28;20111;-85
2021/09/06 03:38:32;;;;;;;22.67;7.75;;;;;;;;;;5052874;28;20021;-86
2021/09/06 03:40:58;;;;;;;15.00;6.60;;;;;;;;;;5052714;28;20013;-86
2021/09/06 03:43:23;;;;;;;13.15;6.75;;;;;;;;;;5052643;28;20059;-86
2021/09/06 03:45:48;;;;;;;15.40;7.00;;;;;;;;;;5051692;28;20117;-85
2021/09/06 03:48:13;;;;;;;15.73;7.53;;;;;;;;;;5052416;28;20119;-85
2021/09/06 03:50:38;;;;;;;14.48;7.38;;;;;;;;;;5053761;28;20120;-86
2021/09/06 03:53:04;;;;;;;18.60;7.80;;;;;;;;;;5052523;28;20017;-85
2021/09/06 03:55:29;;;;;;;17.60;6.90;;;;;;;;;;5053656;28;20029;-86
2021/09/06 03:57:54;;;;;;;13.98;7.18;;;;;;;;;;5053377;28;20032;-85
2021/09/06 04:00:19;;;;;;;17.38;7.50;;;;;;;;;;5051858;28;20070;-86
2021/09/06 04:02:44;;;;;;;15.05;7.68;;;;;;;;;;5052392;28;20025;-85
2021/09/06 04:05:10;;;;;;;17.15;7.60;;;;;;;;;;5052017;28;20017;-85
2021/09/06 04:07:35;;;;;;;15.80;7.53;;;;;;;;;;5052241;28;20024;-85
2021/09/06 04:10:00;;;;;;;15.63;7.07;;;;;;;;;;5051979;28;20108;-85
2021/09/06 04:12:26;;;;;;;14.23;6.97;;;;;;;;;;5052086;28;20083;-85
2021/09/06 04:14:51;;;;;;;13.02;6.97;;;;;;;;;;5051871;28;20020;-85
2021/09/06 04:17:17;;;;;;;12.00;6.85;;;;;;;;;;5053357;28;20593;-85
2021/09/06 04:19:42;;;;;;;14.85;7.35;;;;;;;;;;5053220;28;20067;-85
2021/09/06 04:22:08;;;;;;;18.35;6.70;;;;;;;;;;5053664;28;20024;-86
2021/09/06 04:24:33;;;;;;;14.25;6.65;;;;;;;;;;5053137;28;20423;-85
2021/09/06 04:26:59;;;;;;;15.20;6.72;;;;;;;;;;5051796;28;20521;-86
2021/09/06 04:29:24;;;;;;;13.60;7.15;;;;;;;;;;5051784;28;20051;-86
2021/09/06 04:31:49;;;;;;;13.75;7.05;;;;;;;;;;5049933;28;20021;-86
2021/09/06 04:34:15;;;;;;;13.02;6.88;;;;;;;;;;5050381;28;20387;-85
2021/09/06 04:36:40;;;;;;;16.85;7.20;;;;;;;;;;5050083;28;20021;-86
2021/09/06 04:39:05;;;;;;;12.60;6.43;;;;;;;;;;5049854;28;20472;-85
2021/09/06 04:41:30;;;;;;;13.63;6.18;;;;;;;;;;5050455;28;20044;-85
2021/09/06 04:43:56;;;;;;;12.73;7.05;;;;;;;;;;5051082;28;20017;-85
2021/09/06 04:46:21;;;;;;;13.10;7.20;;;;;;;;;;5049401;28;20017;-86
2021/09/06 04:48:46;;;;;;;16.42;7.32;;;;;;;;;;5049988;28;20028;-86
2021/09/06 04:51:11;;;;;;;15.63;6.85;;;;;;;;;;5049839;28;20039;-86
2021/09/06 04:53:38;;;;;;;14.45;7.00;;;;;;;;;;5049812;28;20033;-86
2021/09/06 04:56:04;;;;;;;15.80;7.70;;;;;;;;;;5051082;28;20387;-85
2021/09/06 04:58:29;;;;;;;15.65;6.75;;;;;;;;;;5051332;28;20021;-85
2021/09/06 05:00:54;;;;;;;13.98;6.75;;;;;;;;;;5051365;28;20013;-86
2021/09/06 05:03:19;;;;;;;12.50;6.38;;;;;;;;;;5082832;28;20013;-86
2021/09/06 05:05:44;;;;;;;15.25;6.55;;;;;;;;;;5051584;28;20104;-86
2021/09/06 05:08:10;;;;;;;16.20;6.63;;;;;;;;;;5051464;28;20090;-85
2021/09/06 05:10:35;;;;;;;12.38;6.70;;;;;;;;;;5052908;28;20039;-85
2021/09/06 05:13:00;;;;;;;13.77;7.10;;;;;;;;;;5051121;28;20033;-85
2021/09/06 05:15:25;;;;;;;13.70;7.70;;;;;;;;;;5052415;28;20111;-85
2021/09/06 05:17:50;;;;;;;16.80;6.55;;;;;;;;;;5052696;28;20037;-86
2021/09/06 05:20:16;;;;;;;12.57;6.70;;;;;;;;;;5050988;28;20461;-85
2021/09/06 05:22:41;;;;;;;13.85;6.50;;;;;;;;;;5051132;28;20472;-85
2021/09/06 05:25:07;;;;;;;14.52;6.70;;;;;;;;;;5051034;28;20109;-85
2021/09/06 05:27:32;;;;;;;13.20;6.63;;;;;;;;;;5051984;28;20523;-85
2021/09/06 05:29:57;;;;;;;13.43;7.15;;;;;;;;;;5051027;28;20104;-85
2021/09/06 05:32:22;;;;;;;16.13;6.55;;;;;;;;;;5050961;28;20021;-85
2021/09/06 05:34:47;;;;;;;12.32;6.50;;;;;;;;;;5052378;28;20040;-85
2021/09/06 05:37:13;;;;;;;14.43;6.72;;;;;;;;;;5052253;28;20372;-85
2021/09/06 05:39:38;;;;;;;15.57;7.57;;;;;;;;;;5051102;28;20029;-86
2021/09/06 05:42:03;;;;;;;13.30;6.85;;;;;;;;;;5051057;28;20464;-85
2021/09/06 05:44:29;;;;;;;15.25;7.57;;;;;;;;;;5052476;28;20025;-86
2021/09/06 05:46:54;;;;;;;19.27;8.32;;;;;;;;;;5051748;28;20029;-85
2021/09/06 05:49:20;;;;;;;13.30;6.88;;;;;;;;;;5052094;28;20060;-85
2021/09/06 05:51:45;;;;;;;15.25;7.18;;;;;;;;;;5052226;28;20488;-85
2021/09/06 05:54:10;;;;;;;13.68;6.63;;;;;;;;;;5050694;28;20025;-85
2021/09/06 05:56:36;;;;;;;14.43;7.35;;;;;;;;;;5052106;28;20013;-85
2021/09/06 05:59:01;;;;;;;16.17;7.57;;;;;;;;;;5052579;28;20021;-85
2021/09/06 06:01:26;;;;;;;19.50;7.57;;;;;;;;;;5054654;28;20028;-86
2021/09/06 06:03:51;;;;;;;18.10;6.45;;;;;;;;;;5054820;28;20037;-85
2021/09/06 06:06:17;;;;;;;13.98;6.50;;;;;;;;;;5052999;28;20361;-85
2021/09/06 06:08:42;;;;;;;15.88;7.25;;;;;;;;;;5054249;28;20074;-85
2021/09/06 06:11:07;;;;;;;15.65;7.28;;;;;;;;;;5055247;28;20024;-85
2021/09/06 06:13:32;;;;;;;16.45;8.25;;;;;;;;;;5054981;28;20074;-88
2021/09/06 06:15:57;;;;;;;18.10;9.60;;;;;;;;;;5053932;28;20021;-86
2021/09/06 06:18:23;;;;;;;16.98;8.05;;;;;;;;;;5053888;28;20661;-86
2021/09/06 06:20:48;;;;;;;15.30;7.80;;;;;;;;;;5054006;28;20017;-86
2021/09/06 06:23:13;;;;;;;17.25;8.27;;;;;;;;;;5053937;28;20016;-87
2021/09/06 06:25:39;;;;;;;15.90;8.00;;;;;;;;;;5053562;28;20020;-87
2021/09/06 06:28:04;;;;;;;21.02;8.13;;;;;;;;;;5055173;28;20020;-86
2021/09/06 06:30:29;;;;;;;16.45;8.48;;;;;;;;;;5054774;28;20376;-86
2021/09/06 06:32:54;;;;;;;18.95;9.15;;;;;;;;;;5053832;28;20080;-87
2021/09/06 06:35:19;;;;;;;18.60;8.77;;;;;;;;;;5053493;28;20021;-86
2021/09/06 06:37:45;;;;;;;17.10;9.30;;;;;;;;;;5053479;28;20020;-87
2021/09/06 06:40:10;;;;;;;23.83;10.45;;;;;;;;;;5053121;28;20040;-86
2021/09/06 06:42:36;;;;;;;21.55;9.68;;;;;;;;;;5052945;28;20357;-86
2021/09/06 06:45:01;;;;;;;23.60;10.25;;;;;;;;;;5054604;28;20017;-86
2021/09/06 06:47:26;;;;;;;25.05;11.35;;;;;;;;;;5053439;28;20021;-86
2021/09/06 06:49:51;;;;;;;25.58;11.88;;;;;;;;;;5053079;28;20104;-86
2021/09/06 06:52:18;;;;;;;34.35;15.98;;;;;;;;;;5052078;28;20064;-86
2021/09/06 06:54:45;;;;;;;38.83;16.83;;;;;;;;;;5052873;28;20049;-86
2021/09/06 06:57:10;;;;;;;39.25;17.00;;;;;;;;;;5053037;28;20027;-86
2021/09/06 06:59:35;;;;;;;34.97;15.52;;;;;;;;;;5052885;28;20017;-86
2021/09/06 07:02:01;;;;;;;33.25;15.68;;;;;;;;;;5051953;28;20122;-86
2021/09/06 07:04:26;;;;;;;31.17;15.05;;;;;;;;;;5052781;28;20017;-86
2021/09/06 07:06:51;;;;;;;33.28;15.50;;;;;;;;;;5052506;28;20057;-87
2021/09/06 07:09:16;;;;;;;37.15;16.52;;;;;;;;;;5052335;28;20396;-86
2021/09/06 07:11:41;;;;;;;40.47;19.42;;;;;;;;;;5052378;28;20393;-86
2021/09/06 07:14:07;;;;;;;40.95;18.88;;;;;;;;;;5054082;28;20013;-86
2021/09/06 07:16:32;;;;;;;41.15;18.65;;;;;;;;;;5051000;28;20021;-86
2021/09/06 07:18:57;;;;;;;41.42;18.63;;;;;;;;;;5051501;28;20033;-87
2021/09/06 07:21:23;;;;;;;43.13;19.60;;;;;;;;;;5053532;28;20025;-86
2021/09/06 07:23:48;;;;;;;43.95;21.33;;;;;;;;;;5053727;28;20473;-87
2021/09/06 07:26:13;;;;;;;46.80;20.23;;;;;;;;;;5053145;28;20068;-86
2021/09/06 07:28:38;;;;;;;47.47;20.85;;;;;;;;;;5052245;28;20036;-86
2021/09/06 07:31:04;;;;;;;42.40;20.38;;;;;;;;;;5054155;28;20069;-87
2021/09/06 07:33:29;;;;;;;45.67;20.30;;;;;;;;;;5051456;28;20029;-86
2021/09/06 07:35:54;;;;;;;39.95;19.30;;;;;;;;;;5052940;28;20143;-86
2021/09/06 07:38:19;;;;;;;46.15;20.23;;;;;;;;;;5053465;28;20426;-86
2021/09/06 07:40:45;;;;;;;42.70;19.38;;;;;;;;;;5053458;28;20020;-86
2021/09/06 07:43:10;;;;;;;52.25;21.23;;;;;;;;;;5051375;28;20025;-87
2021/09/06 07:45:35;;;;;;;45.70;20.08;;;;;;;;;;5051618;28;20083;-87
2021/09/06 07:48:00;;;;;;;48.67;20.10;;;;;;;;;;5052236;28;20013;-86
2021/09/06 07:50:26;;;;;;;41.65;19.98;;;;;;;;;;5053575;28;20479;-86
2021/09/06 07:52:51;;;;;;;47.33;21.02;;;;;;;;;;5051846;28;20019;-86
2021/09/06 07:55:16;;;;;;;40.28;18.55;;;;;;;;;;5051824;28;20396;-86
2021/09/06 07:57:42;;;;;;;50.40;21.55;;;;;;;;;;5051913;28;20526;-86
2021/09/06 08:00:07;;;;;;;46.10;21.10;;;;;;;;;;5052928;28;20028;-87
2021/09/06 08:02:41;;;;;;;53.70;21.98;;;;;;;;;;5051799;28;20123;-88
2021/09/06 08:05:06;;;;;;;51.47;22.30;;;;;;;;;;5052702;28;20017;-87
2021/09/06 08:07:32;;;;;;;57.38;22.67;;;;;;;;;;5052788;28;20025;-87
2021/09/06 08:09:57;;;;;;;57.30;24.05;;;;;;;;;;5051482;28;20389;-87
2021/09/06 08:12:22;;;;;;;57.13;23.90;;;;;;;;;;5085370;28;20460;-86
2021/09/06 08:14:47;;;;;;;50.42;21.80;;;;;;;;;;5051665;28;20031;-87
2021/09/06 08:17:12;;;;;;;52.90;23.50;;;;;;;;;;5051019;28;20027;-86
2021/09/06 08:19:38;;;;;;;51.55;21.60;;;;;;;;;;5053269;28;20029;-87
2021/09/06 08:22:03;;;;;;;55.15;22.35;;;;;;;;;;5051004;28;20025;-87
2021/09/06 08:24:28;;;;;;;55.45;22.02;;;;;;;;;;5050970;28;20491;-86
2021/09/06 08:26:53;;;;;;;54.95;23.33;;;;;;;;;;5050576;28;20032;-87
2021/09/06 08:29:19;;;;;;;51.72;21.45;;;;;;;;;;5050886;28;20111;-87
2021/09/06 08:31:44;;;;;;;56.67;21.05;;;;;;;;;;5050230;28;20432;-87
2021/09/06 08:34:09;;;;;;;52.83;21.23;;;;;;;;;;5051047;28;20029;-87
2021/09/06 08:36:34;;;;;;;54.20;21.75;;;;;;;;;;5052688;28;20013;-87
2021/09/06 08:39:00;;;;;;;46.22;19.23;;;;;;;;;;5047814;28;20116;-86
2021/09/06 08:41:25;;;;;;;50.90;22.10;;;;;;;;;;5052444;28;20021;-87
2021/09/06 08:43:50;;;;;;;47.80;21.33;;;;;;;;;;5051292;28;20780;-87
2021/09/06 08:46:15;;;;;;;46.47;20.75;;;;;;;;;;5051680;28;20023;-87
2021/09/06 08:48:42;;;;;;;57.92;22.38;;;;;;;;;;5050889;28;20049;-87
2021/09/06 08:51:08;;;;;;;49.70;21.08;;;;;;;;;;5052523;28;20017;-87
2021/09/06 08:53:33;;;;;;;61.63;23.25;;;;;;;;;;5051720;28;20032;-87
2021/09/06 08:55:58;;;;;;;60.03;23.63;;;;;;;;;;5051337;28;20469;-87
2021/09/06 08:58:23;;;;;;;46.25;21.42;;;;;;;;;;5051449;28;20021;-87
2021/09/06 09:00:51;;;;;;;42.15;17.40;;;;;;;;;;5051491;28;20090;-87
2021/09/06 09:03:18;;;;;;;50.50;19.70;;;;;;;;;;5052800;28;20369;-87
2021/09/06 09:05:57;;;;;;;55.92;20.88;;;;;;;;;;5051539;28;20045;-87
2021/09/06 09:08:22;;;;;;;50.40;20.05;;;;;;;;;;5051375;28;20017;-87
2021/09/06 09:10:48;;;;;;;48.10;20.25;;;;;;;;;;5051499;28;20531;-87
2021/09/06 09:13:13;;;;;;;57.05;21.13;;;;;;;;;;5052414;28;20021;-88
2021/09/06 09:15:38;;;;;;;48.85;18.63;;;;;;;;;;5052564;28;20029;-87
2021/09/06 09:18:06;;;;;;;46.83;19.45;;;;;;;;;;5051458;28;20021;-87
2021/09/06 09:20:42;;;;;;;44.45;18.83;;;;;;;;;;5051671;28;20380;-87
2021/09/06 09:23:07;;;;;;;46.22;18.75;;;;;;;;;;5050645;28;20831;-87
2021/09/06 09:25:33;;;;;;;44.40;18.42;;;;;;;;;;5051956;28;20041;-87
2021/09/06 09:27:59;;;;;;;46.53;18.65;;;;;;;;;;5052091;28;20106;-86
2021/09/06 09:30:25;;;;;;;58.13;22.88;;;;;;;;;;5050982;28;20059;-87
2021/09/06 09:33:03;;;;;;;52.88;20.58;;;;;;;;;;5050912;28;20063;-87
2021/09/06 09:35:30;;;;;;;51.75;18.40;;;;;;;;;;5054462;28;20492;-87
2021/09/06 09:38:14;;;;;;;50.95;22.00;;;;;;;;;;5054993;28;20075;-87
2021/09/06 09:40:41;;;;;;;51.38;20.73;;;;;;;;;;5056356;28;20056;-87
2021/09/06 09:43:06;;;;;;;41.00;17.33;;;;;;;;;;5054968;28;20104;-87
2021/09/06 09:45:32;;;;;;;45.92;17.08;;;;;;;;;;5054432;28;20107;-87
2021/09/06 09:47:58;;;;;;;41.92;16.98;;;;;;;;;;5055207;28;20013;-87
2021/09/06 09:50:24;;;;;;;31.25;13.63;;;;;;;;;;5054834;28;20029;-87
2021/09/06 09:52:51;;;;;;;31.02;13.13;;;;;;;;;;5054270;28;20108;-87
2021/09/06 09:55:17;;;;;;;33.35;13.52;;;;;;;;;;5055998;28;20028;-87
2021/09/06 09:57:42;;;;;;;33.92;13.68;;;;;;;;;;5054902;28;20017;-87
2021/09/06 10:00:07;;;;;;;32.67;13.48;;;;;;;;;;5055711;28;20013;-87
2021/09/06 10:02:33;;;;;;;31.58;14.10;;;;;;;;;;5054710;28;20032;-87
2021/09/06 10:05:04;;;;;;;37.78;13.40;;;;;;;;;;5054568;28;20023;-87
2021/09/06 10:07:31;;;;;;;34.53;14.20;;;;;;;;;;5055739;28;20092;-87
2021/09/06 10:09:57;;;;;;;29.15;13.05;;;;;;;;;;5055605;28;20043;-87
2021/09/06 10:12:23;;;;;;;28.50;12.85;;;;;;;;;;5054076;28;20029;-87
2021/09/06 10:14:52;;;;;;;33.30;15.93;;;;;;;;;;5055611;28;20044;-86
2021/09/06 10:17:18;;;;;;;33.40;13.88;;;;;;;;;;5055769;28;20021;-88
2021/09/06 10:19:45;;;;;;;35.70;13.25;;;;;;;;;;5055013;28;20013;-88
2021/09/06 10:22:24;;;;;;;24.52;11.43;;;;;;;;;;5055312;28;20543;-87
2021/09/06 10:24:59;;;;;;;32.20;13.27;;;;;;;;;;5055430;28;20024;-87
2021/09/06 10:27:25;;;;;;;41.75;16.25;;;;;;;;;;5053863;28;20016;-87
2021/09/06 10:30:16;;;;;;;30.38;14.45;;;;;;;;;;5053960;28;20021;-87
2021/09/06 10:32:49;;;;;;;28.75;12.73;;;;;;;;;;5053696;28;20083;-87
2021/09/06 10:35:14;;;;;;;31.75;14.43;;;;;;;;;;5053941;28;20074;-86
2021/09/06 10:37:40;;;;;;;26.40;12.35;;;;;;;;;;5087188;28;20473;-87
2021/09/06 10:40:07;;;;;;;29.67;12.38;;;;;;;;;;5053801;28;20028;-87
2021/09/06 10:42:33;;;;;;;33.13;13.95;;;;;;;;;;5054902;28;20440;-87
2021/09/06 10:45:00;;;;;;;40.20;15.60;;;;;;;;;;5053324;28;20021;-86
2021/09/06 10:47:25;;;;;;;37.38;14.82;;;;;;;;;;5053617;28;20020;-87
2021/09/06 10:49:51;;;;;;;40.60;16.42;;;;;;;;;;5053578;28;20033;-88
2021/09/06 10:52:16;;;;;;;36.40;15.57;;;;;;;;;;5053680;28;20037;-87
2021/09/06 10:54:41;;;;;;;34.85;16.20;;;;;;;;;;5053349;28;20021;-87
2021/09/06 10:57:09;;;;;;;32.78;14.65;;;;;;;;;;5053405;28;20021;-87
2021/09/06 10:59:35;;;;;;;38.97;16.27;;;;;;;;;;5053080;28;20048;-87
2021/09/06 11:02:00;;;;;;;40.83;18.98;;;;;;;;;;5053464;28;20021;-88
2021/09/06 11:04:30;;;;;;;37.72;16.38;;;;;;;;;;5053587;28;20021;-87
2021/09/06 11:07:07;;;;;;;35.38;16.52;;;;;;;;;;5053261;28;20021;-88
2021/09/06 11:09:33;;;;;;;43.40;16.83;;;;;;;;;;5045945;28;20033;-87
2021/09/06 11:12:02;;;;;;;37.40;16.63;;;;;;;;;;5053328;28;20055;-88
2021/09/06 11:14:39;;;;;;;39.90;17.33;;;;;;;;;;5052962;28;20361;-87
2021/09/06 11:17:21;;;;;;;44.53;18.40;;;;;;;;;;5052805;28;20024;-87
2021/09/06 11:19:48;;;;;;;42.50;17.25;;;;;;;;;;5054510;28;20016;-87
2021/09/06 11:22:15;;;;;;;40.65;16.55;;;;;;;;;;5054202;28;20019;-87
2021/09/06 11:24:42;;;;;;;42.10;17.08;;;;;;;;;;5052942;28;20021;-87
2021/09/06 11:27:07;;;;;;;34.65;14.88;;;;;;;;;;5053756;28;20016;-87
2021/09/06 11:29:39;;;;;;;35.72;15.18;;;;;;;;;;5052967;28;20025;-87
2021/09/06 11:32:04;;;;;;;32.63;14.32;;;;;;;;;;5052968;28;20029;-88
2021/09/06 11:34:30;;;;;;;42.17;16.58;;;;;;;;;;5052905;28;20131;-88
2021/09/06 11:36:55;;;;;;;37.65;16.63;;;;;;;;;;5052750;28;20021;-86
2021/09/06 11:39:20;;;;;;;33.83;15.13;;;;;;;;;;5052849;28;20108;-87
2021/09/06 11:41:45;;;;;;;36.90;14.98;;;;;;;;;;5054061;28;20039;-87
2021/09/06 11:44:11;;;;;;;42.00;15.40;;;;;;;;;;5052241;28;20028;-88
2021/09/06 11:46:39;;;;;;;36.45;16.10;;;;;;;;;;5053746;28;20036;-88
2021/09/06 11:49:05;;;;;;;39.97;15.45;;;;;;;;;;5052300;28;20036;-88
2021/09/06 11:51:31;;;;;;;31.15;13.00;;;;;;;;;;5052744;28;20021;-87
2021/09/06 11:53:57;;;;;;;30.23;14.10;;;;;;;;;;5053691;28;20044;-87
2021/09/06 11:56:22;;;;;;;33.20;14.27;;;;;;;;;;5051070;28;20025;-88
2021/09/06 11:58:47;;;;;;;33.42;13.90;;;;;;;;;;5053359;28;20541;-87
2021/09/06 12:01:16;;;;;;;25.25;12.02;;;;;;;;;;5053162;28;20021;-87
2021/09/06 12:03:42;;;;;;;31.00;12.55;;;;;;;;;;5052315;28;20488;-87
2021/09/06 12:06:09;;;;;;;25.05;11.95;;;;;;;;;;5052514;28;20029;-87
2021/09/06 12:08:34;;;;;;;25.20;10.75;;;;;;;;;;5053402;28;20032;-88
2021/09/06 12:11:06;;;;;;;29.85;13.68;;;;;;;;;;5052134;28;20021;-87
2021/09/06 12:13:34;;;;;;;26.35;12.40;;;;;;;;;;5053482;28;20021;-88
2021/09/06 12:16:01;;;;;;;27.17;11.35;;;;;;;;;;5051742;28;20048;-87
2021/09/06 12:18:36;;;;;;;28.08;13.40;;;;;;;;;;5051867;28;20025;-87
2021/09/06 12:21:03;;;;;;;28.08;13.48;;;;;;;;;;5051799;28;20019;-87
2021/09/06 12:23:33;;;;;;;34.38;15.25;;;;;;;;;;5051914;28;20053;-87
2021/09/06 12:25:59;;;;;;;30.35;12.75;;;;;;;;;;5051937;28;20013;-88
2021/09/06 12:28:24;;;;;;;26.58;11.48;;;;;;;;;;5051837;28;20362;-87
2021/09/06 12:30:57;;;;;;;28.35;11.88;;;;;;;;;;5053109;28;20037;-87
2021/09/06 12:33:22;;;;;;;21.42;10.63;;;;;;;;;;5051958;28;20032;-87
2021/09/06 12:35:47;;;;;;;24.70;10.48;;;;;;;;;;5051658;28;20017;-87
2021/09/06 12:38:13;;;;;;;21.38;10.15;;;;;;;;;;5052946;28;20035;-87
2021/09/06 12:40:38;;;;;;;20.83;9.80;;;;;;;;;;5051783;28;20020;-87
2021/09/06 12:43:03;;;;;;;26.70;9.55;;;;;;;;;;5053558;28;20006;-87
2021/09/06 12:45:29;;;;;;;20.83;8.98;;;;;;;;;;5052734;28;20024;-87
2021/09/06 12:47:55;;;;;;;20.55;8.80;;;;;;;;;;5051684;28;20472;-88
2021/09/06 12:50:20;;;;;;;23.40;8.32;;;;;;;;;;5051596;28;20082;-88
2021/09/06 12:52:45;;;;;;;21.88;8.65;;;;;;;;;;5050959;28;20078;-87
2021/09/06 12:55:11;;;;;;;17.58;8.60;;;;;;;;;;5052939;28;20071;-87
2021/09/06 12:57:36;;;;;;;23.60;9.77;;;;;;;;;;5051751;28;20448;-87
2021/09/06 13:00:05;;;;;;;17.67;8.77;;;;;;;;;;5052853;28;20021;-88
2021/09/06 13:02:30;;;;;;;18.65;8.40;;;;;;;;;;5051782;28;20071;-88
2021/09/06 13:04:55;;;;;;;18.90;8.48;;;;;;;;;;5051693;28;20473;-87
2021/09/06 13:07:20;;;;;;;17.80;8.63;;;;;;;;;;5051987;28;20049;-87
2021/09/06 13:09:46;;;;;;;22.63;8.93;;;;;;;;;;5055653;28;20389;-88
2021/09/06 13:12:11;;;;;;;18.63;8.57;;;;;;;;;;5055447;28;20025;-88
2021/09/06 13:14:36;;;;;;;22.02;9.15;;;;;;;;;;5056466;28;20021;-87
2021/09/06 13:17:02;;;;;;;20.70;9.13;;;;;;;;;;5055399;28;20021;-88
2021/09/06 13:19:27;;;;;;;23.13;9.27;;;;;;;;;;5056783;28;20017;-88
2021/09/06 13:21:52;;;;;;;17.88;9.20;;;;;;;;;;5055422;28;20078;-87
2021/09/06 13:24:17;;;;;;;22.52;9.77;;;;;;;;;;5054918;28;20048;-87
2021/09/06 13:26:43;;;;;;;19.67;8.25;;;;;;;;;;5055036;28;20111;-87
2021/09/06 13:29:09;;;;;;;19.08;9.15;;;;;;;;;;5056443;28;20032;-87
2021/09/06 13:31:34;;;;;;;19.30;9.20;;;;;;;;;;5055295;28;20020;-87
2021/09/06 13:34:02;;;;;;;19.73;9.10;;;;;;;;;;5055027;28;20020;-87
2021/09/06 13:36:27;;;;;;;19.92;9.10;;;;;;;;;;5055233;28;20021;-88
2021/09/06 13:38:53;;;;;;;20.60;9.70;;;;;;;;;;5056131;28;20047;-87
2021/09/06 13:41:18;;;;;;;18.08;9.00;;;;;;;;;;5056389;28;20017;-87
2021/09/06 13:43:43;;;;;;;24.20;9.60;;;;;;;;;;5054419;28;20488;-87
2021/09/06 13:46:09;;;;;;;21.67;9.52;;;;;;;;;;5055013;28;20108;-88
2021/09/06 13:48:34;;;;;;;16.85;8.88;;;;;;;;;;5054871;28;20067;-87
2021/09/06 13:50:59;;;;;;;17.85;8.20;;;;;;;;;;5054537;28;20020;-87
2021/09/06 13:53:24;;;;;;;20.17;9.35;;;;;;;;;;5054713;28;20362;-87
2021/09/06 13:55:49;;;;;;;17.85;8.63;;;;;;;;;;5054592;28;20460;-87
2021/09/06 13:58:15;;;;;;;16.88;8.48;;;;;;;;;;5055606;28;20100;-87
2021/09/06 14:00:40;;;;;;;18.25;8.15;;;;;;;;;;5054722;28;20104;-87
2021/09/06 14:03:05;;;;;;;15.15;7.80;;;;;;;;;;5054517;28;20068;-87
2021/09/06 14:05:31;;;;;;;18.88;8.55;;;;;;;;;;5055951;28;20024;-87
2021/09/06 14:07:57;;;;;;;15.98;7.40;;;;;;;;;;5054691;28;20024;-87
2021/09/06 14:10:23;;;;;;;15.50;7.65;;;;;;;;;;5054324;28;20440;-87
2021/09/06 14:12:48;;;;;;;16.42;8.23;;;;;;;;;;5054203;28;20480;-87
2021/09/06 14:15:14;;;;;;;15.82;7.95;;;;;;;;;;5055269;28;20021;-87
2021/09/06 14:17:39;;;;;;;17.10;7.13;;;;;;;;;;5055702;28;20013;-87
2021/09/06 14:20:04;;;;;;;16.63;7.82;;;;;;;;;;5053344;28;20107;-87
2021/09/06 14:22:30;;;;;;;20.40;7.97;;;;;;;;;;5055646;28;20469;-87
2021/09/06 14:24:55;;;;;;;14.40;7.07;;;;;;;;;;5054016;28;20476;-87